sensor_id;sensor_type;location;lat;lon;timestamp;temperature;humidity
69208;SHT31;56321;47.662;8.878;2023-04-10T00:00:02;7.23;60.60
69208;SHT31;56321;47.662;8.878;2023-04-10T00:02:28;7.19;60.41
69208;SHT31;56321;47.662;8.878;2023-04-10T00:04:53;7.17;60.57
69208;SHT31;56321;47.662;8.878;2023-04-10T00:07:19;7.10;60.58
69208;SHT31;56321;47.662;8.878;2023-04-10T00:09:44;7.04;60.60
69208;SHT31;56321;47.662;8.878;2023-04-10T00:12:09;7.06;60.68
69208;SHT31;56321;47.662;8.878;2023-04-10T00:14:38;7.04;60.65
69208;SHT31;56321;47.662;8.878;2023-04-10T00:17:04;6.99;60.70
69208;SHT31;56321;47.662;8.878;2023-04-10T00:19:29;6.95;60.70
69208;SHT31;56321;47.662;8.878;2023-04-10T00:21:55;6.92;60.78
69208;SHT31;56321;47.662;8.878;2023-04-10T00:24:20;6.89;60.58
69208;SHT31;56321;47.662;8.878;2023-04-10T00:26:46;6.86;60.76
69208;SHT31;56321;47.662;8.878;2023-04-10T00:29:11;6.82;60.94
69208;SHT31;56321;47.662;8.878;2023-04-10T00:31:36;6.81;60.95
69208;SHT31;56321;47.662;8.878;2023-04-10T00:34:02;6.79;60.90
69208;SHT31;56321;47.662;8.878;2023-04-10T00:36:27;6.73;60.80
69208;SHT31;56321;47.662;8.878;2023-04-10T00:38:53;6.72;60.82
69208;SHT31;56321;47.662;8.878;2023-04-10T00:41:18;6.68;60.90
69208;SHT31;56321;47.662;8.878;2023-04-10T00:43:44;6.64;60.95
69208;SHT31;56321;47.662;8.878;2023-04-10T00:46:09;6.58;61.04
69208;SHT31;56321;47.662;8.878;2023-04-10T00:48:35;6.52;61.18
69208;SHT31;56321;47.662;8.878;2023-04-10T00:51:01;6.51;61.37
69208;SHT31;56321;47.662;8.878;2023-04-10T00:53:27;6.45;61.31
69208;SHT31;56321;47.662;8.878;2023-04-10T00:55:53;6.46;61.48
69208;SHT31;56321;47.662;8.878;2023-04-10T00:58:19;6.46;61.41
69208;SHT31;56321;47.662;8.878;2023-04-10T01:00:46;6.40;61.48
69208;SHT31;56321;47.662;8.878;2023-04-10T01:03:15;6.35;61.50
69208;SHT31;56321;47.662;8.878;2023-04-10T01:09:00;6.24;61.86
69208;SHT31;56321;47.662;8.878;2023-04-10T01:14:52;6.17;61.88
69208;SHT31;56321;47.662;8.878;2023-04-10T01:17:30;6.11;62.01
69208;SHT31;56321;47.662;8.878;2023-04-10T01:20:07;6.10;62.07
69208;SHT31;56321;47.662;8.878;2023-04-10T01:22:35;6.10;62.10
69208;SHT31;56321;47.662;8.878;2023-04-10T01:28:20;6.06;62.21
69208;SHT31;56321;47.662;8.878;2023-04-10T01:30:53;6.02;62.07
69208;SHT31;56321;47.662;8.878;2023-04-10T01:33:21;5.99;62.14
69208;SHT31;56321;47.662;8.878;2023-04-10T01:35:49;5.95;62.22
69208;SHT31;56321;47.662;8.878;2023-04-10T01:38:17;5.89;62.16
69208;SHT31;56321;47.662;8.878;2023-04-10T01:40:43;5.83;62.42
69208;SHT31;56321;47.662;8.878;2023-04-10T01:43:15;5.83;62.52
69208;SHT31;56321;47.662;8.878;2023-04-10T01:45:41;5.80;62.74
69208;SHT31;56321;47.662;8.878;2023-04-10T01:48:08;5.80;62.85
69208;SHT31;56321;47.662;8.878;2023-04-10T01:50:34;5.80;62.85
69208;SHT31;56321;47.662;8.878;2023-04-10T01:53:02;5.83;62.73
69208;SHT31;56321;47.662;8.878;2023-04-10T01:55:28;5.77;62.77
69208;SHT31;56321;47.662;8.878;2023-04-10T01:57:54;5.75;62.76
69208;SHT31;56321;47.662;8.878;2023-04-10T02:00:20;5.73;62.88
69208;SHT31;56321;47.662;8.878;2023-04-10T02:02:46;5.70;62.77
69208;SHT31;56321;47.662;8.878;2023-04-10T02:05:14;5.65;63.04
69208;SHT31;56321;47.662;8.878;2023-04-10T02:08:03;5.60;63.47
69208;SHT31;56321;47.662;8.878;2023-04-10T02:10:36;5.59;63.05
69208;SHT31;56321;47.662;8.878;2023-04-10T02:13:06;5.56;62.92
69208;SHT31;56321;47.662;8.878;2023-04-10T02:15:35;5.49;63.04
69208;SHT31;56321;47.662;8.878;2023-04-10T02:18:02;5.48;63.28
69208;SHT31;56321;47.662;8.878;2023-04-10T02:20:30;5.44;63.47
69208;SHT31;56321;47.662;8.878;2023-04-10T02:22:57;5.42;63.50
69208;SHT31;56321;47.662;8.878;2023-04-10T02:25:26;5.42;63.54
69208;SHT31;56321;47.662;8.878;2023-04-10T02:27:51;5.32;63.58
69208;SHT31;56321;47.662;8.878;2023-04-10T02:30:16;5.32;63.80
69208;SHT31;56321;47.662;8.878;2023-04-10T02:32:42;5.28;63.84
69208;SHT31;56321;47.662;8.878;2023-04-10T02:35:08;5.27;63.90
69208;SHT31;56321;47.662;8.878;2023-04-10T02:37:33;5.23;64.02
69208;SHT31;56321;47.662;8.878;2023-04-10T02:40:00;5.24;64.09
69208;SHT31;56321;47.662;8.878;2023-04-10T02:42:25;5.27;64.12
69208;SHT31;56321;47.662;8.878;2023-04-10T02:44:51;5.27;64.01
69208;SHT31;56321;47.662;8.878;2023-04-10T02:47:16;5.24;64.02
69208;SHT31;56321;47.662;8.878;2023-04-10T02:49:42;5.24;64.11
69208;SHT31;56321;47.662;8.878;2023-04-10T02:52:08;5.23;64.19
69208;SHT31;56321;47.662;8.878;2023-04-10T02:54:33;5.20;64.19
69208;SHT31;56321;47.662;8.878;2023-04-10T02:56:59;5.17;64.16
69208;SHT31;56321;47.662;8.878;2023-04-10T02:59:24;5.16;64.27
69208;SHT31;56321;47.662;8.878;2023-04-10T03:01:49;5.13;64.38
69208;SHT31;56321;47.662;8.878;2023-04-10T03:04:16;5.10;64.42
69208;SHT31;56321;47.662;8.878;2023-04-10T03:06:42;5.08;64.42
69208;SHT31;56321;47.662;8.878;2023-04-10T03:09:07;5.06;64.44
69208;SHT31;56321;47.662;8.878;2023-04-10T03:11:32;5.04;64.49
69208;SHT31;56321;47.662;8.878;2023-04-10T03:13:58;5.04;64.50
69208;SHT31;56321;47.662;8.878;2023-04-10T03:16:23;5.03;64.70
69208;SHT31;56321;47.662;8.878;2023-04-10T03:18:49;5.03;64.66
69208;SHT31;56321;47.662;8.878;2023-04-10T03:21:14;5.04;64.66
69208;SHT31;56321;47.662;8.878;2023-04-10T03:23:40;5.03;64.63
69208;SHT31;56321;47.662;8.878;2023-04-10T03:26:05;5.03;64.57
69208;SHT31;56321;47.662;8.878;2023-04-10T03:28:30;4.97;64.64
69208;SHT31;56321;47.662;8.878;2023-04-10T03:30:57;4.94;64.73
69208;SHT31;56321;47.662;8.878;2023-04-10T03:33:23;4.93;64.75
69208;SHT31;56321;47.662;8.878;2023-04-10T03:35:49;4.93;64.79
69208;SHT31;56321;47.662;8.878;2023-04-10T03:38:14;4.91;64.70
69208;SHT31;56321;47.662;8.878;2023-04-10T03:40:39;4.86;64.75
69208;SHT31;56321;47.662;8.878;2023-04-10T03:43:05;4.86;64.89
69208;SHT31;56321;47.662;8.878;2023-04-10T03:45:30;4.83;64.88
69208;SHT31;56321;47.662;8.878;2023-04-10T03:47:55;4.83;64.86
69208;SHT31;56321;47.662;8.878;2023-04-10T03:50:21;4.80;65.01
69208;SHT31;56321;47.662;8.878;2023-04-10T03:52:46;4.79;64.96
69208;SHT31;56321;47.662;8.878;2023-04-10T03:55:14;4.80;64.93
69208;SHT31;56321;47.662;8.878;2023-04-10T03:57:43;4.81;64.96
69208;SHT31;56321;47.662;8.878;2023-04-10T04:00:09;4.77;64.95
69208;SHT31;56321;47.662;8.878;2023-04-10T04:02:35;4.80;65.06
69208;SHT31;56321;47.662;8.878;2023-04-10T04:05:00;4.75;65.09
69208;SHT31;56321;47.662;8.878;2023-04-10T04:07:26;4.76;65.11
69208;SHT31;56321;47.662;8.878;2023-04-10T04:09:51;4.73;65.07
69208;SHT31;56321;47.662;8.878;2023-04-10T04:12:16;4.70;65.10
69208;SHT31;56321;47.662;8.878;2023-04-10T04:14:42;4.69;65.23
69208;SHT31;56321;47.662;8.878;2023-04-10T04:17:08;4.72;65.35
69208;SHT31;56321;47.662;8.878;2023-04-10T04:19:34;4.68;65.39
69208;SHT31;56321;47.662;8.878;2023-04-10T04:22:00;4.68;65.42
69208;SHT31;56321;47.662;8.878;2023-04-10T04:24:25;4.66;65.42
69208;SHT31;56321;47.662;8.878;2023-04-10T04:26:50;4.66;65.55
69208;SHT31;56321;47.662;8.878;2023-04-10T04:29:16;4.63;65.73
69208;SHT31;56321;47.662;8.878;2023-04-10T04:31:41;4.66;65.83
69208;SHT31;56321;47.662;8.878;2023-04-10T04:34:06;4.65;65.91
69208;SHT31;56321;47.662;8.878;2023-04-10T04:36:32;4.66;65.92
69208;SHT31;56321;47.662;8.878;2023-04-10T04:38:57;4.66;65.82
69208;SHT31;56321;47.662;8.878;2023-04-10T04:41:22;4.66;65.84
69208;SHT31;56321;47.662;8.878;2023-04-10T04:43:48;4.63;65.83
69208;SHT31;56321;47.662;8.878;2023-04-10T04:46:13;4.65;65.93
69208;SHT31;56321;47.662;8.878;2023-04-10T04:48:38;4.65;65.89
69208;SHT31;56321;47.662;8.878;2023-04-10T04:51:07;4.62;65.94
69208;SHT31;56321;47.662;8.878;2023-04-10T04:53:32;4.61;65.89
69208;SHT31;56321;47.662;8.878;2023-04-10T04:55:57;4.62;65.92
69208;SHT31;56321;47.662;8.878;2023-04-10T04:58:23;4.59;65.81
69208;SHT31;56321;47.662;8.878;2023-04-10T05:00:50;4.58;65.89
69208;SHT31;56321;47.662;8.878;2023-04-10T05:03:15;4.56;66.06
69208;SHT31;56321;47.662;8.878;2023-04-10T05:05:41;4.52;66.12
69208;SHT31;56321;47.662;8.878;2023-04-10T05:08:06;4.52;66.22
69208;SHT31;56321;47.662;8.878;2023-04-10T05:10:32;4.56;66.47
69208;SHT31;56321;47.662;8.878;2023-04-10T05:12:57;4.58;66.61
69208;SHT31;56321;47.662;8.878;2023-04-10T05:15:22;4.62;66.72
69208;SHT31;56321;47.662;8.878;2023-04-10T05:17:48;4.65;66.85
69208;SHT31;56321;47.662;8.878;2023-04-10T05:20:15;4.65;66.77
69208;SHT31;56321;47.662;8.878;2023-04-10T05:22:40;4.68;66.99
69208;SHT31;56321;47.662;8.878;2023-04-10T05:25:06;4.75;67.00
69208;SHT31;56321;47.662;8.878;2023-04-10T05:27:31;4.76;67.07
69208;SHT31;56321;47.662;8.878;2023-04-10T05:29:57;4.79;67.12
69208;SHT31;56321;47.662;8.878;2023-04-10T05:32:22;4.84;67.01
69208;SHT31;56321;47.662;8.878;2023-04-10T05:34:47;4.86;67.11
69208;SHT31;56321;47.662;8.878;2023-04-10T05:37:12;4.90;67.10
69208;SHT31;56321;47.662;8.878;2023-04-10T05:39:38;4.96;67.42
69208;SHT31;56321;47.662;8.878;2023-04-10T05:42:03;5.04;67.28
69208;SHT31;56321;47.662;8.878;2023-04-10T05:44:29;5.07;67.46
69208;SHT31;56321;47.662;8.878;2023-04-10T05:46:55;5.14;67.50
69208;SHT31;56321;47.662;8.878;2023-04-10T05:49:20;5.24;67.59
69208;SHT31;56321;47.662;8.878;2023-04-10T05:51:45;5.30;67.62
69208;SHT31;56321;47.662;8.878;2023-04-10T05:54:17;5.34;67.65
69208;SHT31;56321;47.662;8.878;2023-04-10T05:56:42;5.45;67.51
69208;SHT31;56321;47.662;8.878;2023-04-10T05:59:08;5.52;67.34
69208;SHT31;56321;47.662;8.878;2023-04-10T06:01:33;5.59;67.25
69208;SHT31;56321;47.662;8.878;2023-04-10T06:03:58;5.63;67.32
69208;SHT31;56321;47.662;8.878;2023-04-10T06:06:24;5.75;67.24
69208;SHT31;56321;47.662;8.878;2023-04-10T06:08:50;5.82;67.17
69208;SHT31;56321;47.662;8.878;2023-04-10T06:11:16;5.90;67.18
69208;SHT31;56321;47.662;8.878;2023-04-10T06:13:41;6.00;67.13
69208;SHT31;56321;47.662;8.878;2023-04-10T06:16:07;6.06;66.99
69208;SHT31;56321;47.662;8.878;2023-04-10T06:18:32;6.07;67.16
69208;SHT31;56321;47.662;8.878;2023-04-10T06:20:58;6.14;67.26
69208;SHT31;56321;47.662;8.878;2023-04-10T06:23:28;6.21;67.25
69208;SHT31;56321;47.662;8.878;2023-04-10T06:25:54;6.25;67.28
69208;SHT31;56321;47.662;8.878;2023-04-10T06:28:20;6.35;67.17
69208;SHT31;56321;47.662;8.878;2023-04-10T06:30:45;6.45;67.01
69208;SHT31;56321;47.662;8.878;2023-04-10T06:33:10;6.48;66.68
69208;SHT31;56321;47.662;8.878;2023-04-10T06:35:36;6.56;66.25
69208;SHT31;56321;47.662;8.878;2023-04-10T06:38:02;6.55;66.01
69208;SHT31;56321;47.662;8.878;2023-04-10T06:40:27;6.58;65.98
69208;SHT31;56321;47.662;8.878;2023-04-10T06:42:53;6.59;66.03
69208;SHT31;56321;47.662;8.878;2023-04-10T06:45:19;6.67;66.29
69208;SHT31;56321;47.662;8.878;2023-04-10T06:47:46;6.73;66.11
69208;SHT31;56321;47.662;8.878;2023-04-10T06:50:11;6.78;65.97
69208;SHT31;56321;47.662;8.878;2023-04-10T06:52:37;6.85;65.86
69208;SHT31;56321;47.662;8.878;2023-04-10T06:55:02;6.89;65.61
69208;SHT31;56321;47.662;8.878;2023-04-10T06:57:27;6.93;65.38
69208;SHT31;56321;47.662;8.878;2023-04-10T06:59:53;6.99;65.31
69208;SHT31;56321;47.662;8.878;2023-04-10T07:02:18;6.97;65.28
69208;SHT31;56321;47.662;8.878;2023-04-10T07:04:44;7.02;65.30
69208;SHT31;56321;47.662;8.878;2023-04-10T07:07:09;7.02;64.90
69208;SHT31;56321;47.662;8.878;2023-04-10T07:09:37;7.02;64.84
69208;SHT31;56321;47.662;8.878;2023-04-10T07:12:03;7.06;64.99
69208;SHT31;56321;47.662;8.878;2023-04-10T07:14:28;7.13;65.06
69208;SHT31;56321;47.662;8.878;2023-04-10T07:16:54;7.20;65.08
69208;SHT31;56321;47.662;8.878;2023-04-10T07:19:19;7.27;64.85
69208;SHT31;56321;47.662;8.878;2023-04-10T07:21:45;7.34;64.31
69208;SHT31;56321;47.662;8.878;2023-04-10T07:24:14;7.46;64.12
69208;SHT31;56321;47.662;8.878;2023-04-10T07:26:40;7.50;64.03
69208;SHT31;56321;47.662;8.878;2023-04-10T07:29:05;7.61;64.12
69208;SHT31;56321;47.662;8.878;2023-04-10T07:31:31;7.69;63.80
69208;SHT31;56321;47.662;8.878;2023-04-10T07:33:56;7.81;63.51
69208;SHT31;56321;47.662;8.878;2023-04-10T07:36:21;7.92;63.85
69208;SHT31;56321;47.662;8.878;2023-04-10T07:38:46;8.03;63.48
69208;SHT31;56321;47.662;8.878;2023-04-10T07:41:12;8.16;63.08
69208;SHT31;56321;47.662;8.878;2023-04-10T07:43:38;8.24;63.16
69208;SHT31;56321;47.662;8.878;2023-04-10T07:46:03;8.37;63.18
69208;SHT31;56321;47.662;8.878;2023-04-10T07:48:29;8.48;62.85
69208;SHT31;56321;47.662;8.878;2023-04-10T07:50:54;8.58;62.90
69208;SHT31;56321;47.662;8.878;2023-04-10T07:53:20;8.72;62.70
69208;SHT31;56321;47.662;8.878;2023-04-10T07:55:45;8.91;62.70
69208;SHT31;56321;47.662;8.878;2023-04-10T07:58:13;9.08;62.86
69208;SHT31;56321;47.662;8.878;2023-04-10T08:00:39;9.26;62.53
69208;SHT31;56321;47.662;8.878;2023-04-10T08:03:05;9.44;61.98
69208;SHT31;56321;47.662;8.878;2023-04-10T08:05:31;9.57;61.24
69208;SHT31;56321;47.662;8.878;2023-04-10T08:07:56;9.65;60.95
69208;SHT31;56321;47.662;8.878;2023-04-10T08:10:21;9.73;61.14
69208;SHT31;56321;47.662;8.878;2023-04-10T08:12:47;9.84;61.40
69208;SHT31;56321;47.662;8.878;2023-04-10T08:15:12;9.99;60.98
69208;SHT31;56321;47.662;8.878;2023-04-10T08:17:37;10.15;60.42
69208;SHT31;56321;47.662;8.878;2023-04-10T08:20:03;10.28;60.42
69208;SHT31;56321;47.662;8.878;2023-04-10T08:22:29;10.39;60.42
69208;SHT31;56321;47.662;8.878;2023-04-10T08:24:54;10.56;59.68
69208;SHT31;56321;47.662;8.878;2023-04-10T08:27:19;10.71;60.58
69208;SHT31;56321;47.662;8.878;2023-04-10T08:29:45;10.91;59.91
69208;SHT31;56321;47.662;8.878;2023-04-10T08:32:10;11.12;59.97
69208;SHT31;56321;47.662;8.878;2023-04-10T08:34:35;11.33;59.96
69208;SHT31;56321;47.662;8.878;2023-04-10T08:37:04;11.56;58.76
69208;SHT31;56321;47.662;8.878;2023-04-10T08:39:30;11.76;58.56
69208;SHT31;56321;47.662;8.878;2023-04-10T08:41:56;11.98;57.94
69208;SHT31;56321;47.662;8.878;2023-04-10T08:44:21;12.10;57.20
69208;SHT31;56321;47.662;8.878;2023-04-10T08:46:47;12.24;57.23
69208;SHT31;56321;47.662;8.878;2023-04-10T08:51:55;12.56;56.40
69208;SHT31;56321;47.662;8.878;2023-04-10T08:54:28;12.75;56.80
69208;SHT31;56321;47.662;8.878;2023-04-10T08:56:55;12.96;56.09
69208;SHT31;56321;47.662;8.878;2023-04-10T08:59:21;13.17;55.51
69208;SHT31;56321;47.662;8.878;2023-04-10T09:01:47;13.37;54.42
69208;SHT31;56321;47.662;8.878;2023-04-10T09:04:12;13.55;54.79
69208;SHT31;56321;47.662;8.878;2023-04-10T09:06:38;13.72;54.16
69208;SHT31;56321;47.662;8.878;2023-04-10T09:09:07;13.90;53.16
69208;SHT31;56321;47.662;8.878;2023-04-10T09:14:20;14.26;52.31
69208;SHT31;56321;47.662;8.878;2023-04-10T09:16:46;14.40;51.89
69208;SHT31;56321;47.662;8.878;2023-04-10T09:19:11;14.55;51.27
69208;SHT31;56321;47.662;8.878;2023-04-10T09:21:37;14.69;50.48
69208;SHT31;56321;47.662;8.878;2023-04-10T09:24:02;14.78;50.60
69208;SHT31;56321;47.662;8.878;2023-04-10T09:26:29;14.96;50.97
69208;SHT31;56321;47.662;8.878;2023-04-10T09:29:03;15.14;49.93
69208;SHT31;56321;47.662;8.878;2023-04-10T09:31:36;15.39;49.60
69208;SHT31;56321;47.662;8.878;2023-04-10T09:36:39;15.89;48.87
69208;SHT31;56321;47.662;8.878;2023-04-10T09:39:06;16.13;48.59
69208;SHT31;56321;47.662;8.878;2023-04-10T09:41:32;16.34;47.11
69208;SHT31;56321;47.662;8.878;2023-04-10T09:44:08;16.54;46.13
69208;SHT31;56321;47.662;8.878;2023-04-10T09:46:34;16.74;47.26
69208;SHT31;56321;47.662;8.878;2023-04-10T09:48:59;16.98;46.96
69208;SHT31;56321;47.662;8.878;2023-04-10T09:51:33;17.29;45.64
69208;SHT31;56321;47.662;8.878;2023-04-10T09:53:59;17.54;44.65
69208;SHT31;56321;47.662;8.878;2023-04-10T09:56:25;17.66;44.41
69208;SHT31;56321;47.662;8.878;2023-04-10T09:58:55;17.84;44.45
69208;SHT31;56321;47.662;8.878;2023-04-10T10:01:21;18.04;43.72
69208;SHT31;56321;47.662;8.878;2023-04-10T10:03:47;18.21;43.35
69208;SHT31;56321;47.662;8.878;2023-04-10T10:06:12;18.35;42.59
69208;SHT31;56321;47.662;8.878;2023-04-10T10:08:38;18.49;41.95
69208;SHT31;56321;47.662;8.878;2023-04-10T10:11:05;18.69;42.00
69208;SHT31;56321;47.662;8.878;2023-04-10T10:13:48;18.84;39.96
69208;SHT31;56321;47.662;8.878;2023-04-10T10:16:19;19.08;40.39
69208;SHT31;56321;47.662;8.878;2023-04-10T10:19:08;19.28;37.73
69208;SHT31;56321;47.662;8.878;2023-04-10T10:21:34;19.50;40.17
69208;SHT31;56321;47.662;8.878;2023-04-10T10:24:01;19.59;39.54
69208;SHT31;56321;47.662;8.878;2023-04-10T10:26:28;19.79;38.95
69208;SHT31;56321;47.662;8.878;2023-04-10T10:28:55;19.87;38.79
69208;SHT31;56321;47.662;8.878;2023-04-10T10:31:24;20.10;39.05
69208;SHT31;56321;47.662;8.878;2023-04-10T10:33:51;20.36;38.00
69208;SHT31;56321;47.662;8.878;2023-04-10T10:36:18;20.45;37.58
69208;SHT31;56321;47.662;8.878;2023-04-10T10:41:39;20.79;36.64
69208;SHT31;56321;47.662;8.878;2023-04-10T10:44:18;21.18;36.36
69208;SHT31;56321;47.662;8.878;2023-04-10T10:50:01;21.89;34.16
69208;SHT31;56321;47.662;8.878;2023-04-10T10:52:46;22.28;33.18
69208;SHT31;56321;47.662;8.878;2023-04-10T11:00:19;22.81;33.54
69208;SHT31;56321;47.662;8.878;2023-04-10T11:02:44;22.63;34.10
69208;SHT31;56321;47.662;8.878;2023-04-10T11:08:13;22.09;34.69
69208;SHT31;56321;47.662;8.878;2023-04-10T11:13:31;22.29;34.81
69208;SHT31;56321;47.662;8.878;2023-04-10T11:15:57;22.63;34.41
69208;SHT31;56321;47.662;8.878;2023-04-10T11:21:16;23.60;32.21
69208;SHT31;56321;47.662;8.878;2023-04-10T11:29:01;24.48;32.05
69208;SHT31;56321;47.662;8.878;2023-04-10T11:31:27;24.49;31.03
69208;SHT31;56321;47.662;8.878;2023-04-10T11:36:24;24.49;31.69
69208;SHT31;56321;47.662;8.878;2023-04-10T11:39:09;24.35;28.34
69208;SHT31;56321;47.662;8.878;2023-04-10T11:41:39;24.28;29.85
69208;SHT31;56321;47.662;8.878;2023-04-10T11:44:07;24.01;30.75
69208;SHT31;56321;47.662;8.878;2023-04-10T11:46:35;23.84;30.91
69208;SHT31;56321;47.662;8.878;2023-04-10T11:49:03;23.70;31.18
69208;SHT31;56321;47.662;8.878;2023-04-10T11:51:30;23.55;31.29
69208;SHT31;56321;47.662;8.878;2023-04-10T11:54:09;23.48;30.17
69208;SHT31;56321;47.662;8.878;2023-04-10T11:56:35;23.58;31.17
69208;SHT31;56321;47.662;8.878;2023-04-10T11:59:01;23.62;31.71
69208;SHT31;56321;47.662;8.878;2023-04-10T12:01:31;23.65;31.53
69208;SHT31;56321;47.662;8.878;2023-04-10T12:03:57;23.62;32.19
69208;SHT31;56321;47.662;8.878;2023-04-10T12:06:22;23.52;31.73
69208;SHT31;56321;47.662;8.878;2023-04-10T12:08:48;23.38;31.99
69208;SHT31;56321;47.662;8.878;2023-04-10T12:11:18;23.26;31.69
69208;SHT31;56321;47.662;8.878;2023-04-10T12:13:45;23.08;31.39
69208;SHT31;56321;47.662;8.878;2023-04-10T12:16:12;22.83;31.82
69208;SHT31;56321;47.662;8.878;2023-04-10T12:18:37;22.64;32.40
69208;SHT31;56321;47.662;8.878;2023-04-10T12:21:03;22.60;32.55
69208;SHT31;56321;47.662;8.878;2023-04-10T12:23:29;22.50;32.83
69208;SHT31;56321;47.662;8.878;2023-04-10T12:26:16;22.40;32.81
69208;SHT31;56321;47.662;8.878;2023-04-10T12:28:50;22.36;33.27
69208;SHT31;56321;47.662;8.878;2023-04-10T12:31:16;22.33;33.86
69208;SHT31;56321;47.662;8.878;2023-04-10T12:33:45;22.30;33.06
69208;SHT31;56321;47.662;8.878;2023-04-10T12:36:20;22.23;33.51
69208;SHT31;56321;47.662;8.878;2023-04-10T12:38:46;22.19;33.67
69208;SHT31;56321;47.662;8.878;2023-04-10T12:41:11;22.15;33.91
69208;SHT31;56321;47.662;8.878;2023-04-10T12:43:41;22.18;34.10
69208;SHT31;56321;47.662;8.878;2023-04-10T12:46:08;22.08;33.32
69208;SHT31;56321;47.662;8.878;2023-04-10T12:48:34;21.99;33.83
69208;SHT31;56321;47.662;8.878;2023-04-10T12:51:00;21.92;33.56
69208;SHT31;56321;47.662;8.878;2023-04-10T12:53:26;21.82;33.56
69208;SHT31;56321;47.662;8.878;2023-04-10T12:55:56;21.68;33.94
69208;SHT31;56321;47.662;8.878;2023-04-10T12:58:23;21.57;33.51
69208;SHT31;56321;47.662;8.878;2023-04-10T13:00:53;21.47;34.14
69208;SHT31;56321;47.662;8.878;2023-04-10T13:03:19;21.47;33.77
69208;SHT31;56321;47.662;8.878;2023-04-10T13:05:45;21.44;34.94
69208;SHT31;56321;47.662;8.878;2023-04-10T13:08:11;21.44;34.28
69208;SHT31;56321;47.662;8.878;2023-04-10T13:10:36;21.44;33.54
69208;SHT31;56321;47.662;8.878;2023-04-10T13:13:03;21.39;33.97
69208;SHT31;56321;47.662;8.878;2023-04-10T13:15:28;21.33;33.40
69208;SHT31;56321;47.662;8.878;2023-04-10T13:17:54;21.27;33.85
69208;SHT31;56321;47.662;8.878;2023-04-10T13:20:19;21.20;34.50
69208;SHT31;56321;47.662;8.878;2023-04-10T13:22:45;21.19;34.14
69208;SHT31;56321;47.662;8.878;2023-04-10T13:25:10;21.10;33.75
69208;SHT31;56321;47.662;8.878;2023-04-10T13:27:36;21.04;33.93
69208;SHT31;56321;47.662;8.878;2023-04-10T13:30:01;21.00;35.06
69208;SHT31;56321;47.662;8.878;2023-04-10T13:32:26;21.00;34.82
69208;SHT31;56321;47.662;8.878;2023-04-10T13:34:52;20.98;34.42
69208;SHT31;56321;47.662;8.878;2023-04-10T13:37:19;20.98;33.83
69208;SHT31;56321;47.662;8.878;2023-04-10T13:39:44;20.96;35.10
69208;SHT31;56321;47.662;8.878;2023-04-10T13:42:10;20.95;35.01
69208;SHT31;56321;47.662;8.878;2023-04-10T13:44:35;20.98;34.42
69208;SHT31;56321;47.662;8.878;2023-04-10T13:47:00;20.96;33.67
69208;SHT31;56321;47.662;8.878;2023-04-10T13:49:26;20.89;33.89
69208;SHT31;56321;47.662;8.878;2023-04-10T13:51:55;20.85;34.99
69208;SHT31;56321;47.662;8.878;2023-04-10T13:54:20;20.82;35.02
69208;SHT31;56321;47.662;8.878;2023-04-10T13:56:45;20.79;34.48
69208;SHT31;56321;47.662;8.878;2023-04-10T13:59:11;20.74;35.43
69208;SHT31;56321;47.662;8.878;2023-04-10T14:01:36;20.71;35.06
69208;SHT31;56321;47.662;8.878;2023-04-10T14:04:02;20.67;34.44
69208;SHT31;56321;47.662;8.878;2023-04-10T14:06:27;20.58;34.83
69208;SHT31;56321;47.662;8.878;2023-04-10T14:08:52;20.52;35.26
69208;SHT31;56321;47.662;8.878;2023-04-10T14:11:19;20.45;35.51
69208;SHT31;56321;47.662;8.878;2023-04-10T14:13:44;20.43;35.56
69208;SHT31;56321;47.662;8.878;2023-04-10T14:16:10;20.44;35.77
69208;SHT31;56321;47.662;8.878;2023-04-10T14:18:36;20.38;35.32
69208;SHT31;56321;47.662;8.878;2023-04-10T14:21:01;20.31;35.61
69208;SHT31;56321;47.662;8.878;2023-04-10T14:23:27;20.27;35.01
69208;SHT31;56321;47.662;8.878;2023-04-10T14:25:52;20.24;34.88
69208;SHT31;56321;47.662;8.878;2023-04-10T14:28:17;20.21;35.39
69208;SHT31;56321;47.662;8.878;2023-04-10T14:30:44;20.18;35.16
69208;SHT31;56321;47.662;8.878;2023-04-10T14:33:09;20.16;35.44
69208;SHT31;56321;47.662;8.878;2023-04-10T14:35:35;20.14;35.90
69208;SHT31;56321;47.662;8.878;2023-04-10T14:38:00;20.10;35.87
69208;SHT31;56321;47.662;8.878;2023-04-10T14:40:26;20.07;35.72
69208;SHT31;56321;47.662;8.878;2023-04-10T14:42:51;20.05;34.93
69208;SHT31;56321;47.662;8.878;2023-04-10T14:45:17;20.03;35.66
69208;SHT31;56321;47.662;8.878;2023-04-10T14:47:43;20.07;35.84
69208;SHT31;56321;47.662;8.878;2023-04-10T14:50:09;20.05;35.45
69208;SHT31;56321;47.662;8.878;2023-04-10T14:52:35;19.97;36.15
69208;SHT31;56321;47.662;8.878;2023-04-10T14:55:00;19.89;35.32
69208;SHT31;56321;47.662;8.878;2023-04-10T14:57:25;19.83;35.68
69208;SHT31;56321;47.662;8.878;2023-04-10T14:59:51;19.76;35.13
69208;SHT31;56321;47.662;8.878;2023-04-10T15:02:16;19.70;35.84
69208;SHT31;56321;47.662;8.878;2023-04-10T15:04:41;19.66;35.37
69208;SHT31;56321;47.662;8.878;2023-04-10T15:07:06;19.59;35.25
69208;SHT31;56321;47.662;8.878;2023-04-10T15:09:32;19.55;35.50
69208;SHT31;56321;47.662;8.878;2023-04-10T15:11:57;19.54;35.37
69208;SHT31;56321;47.662;8.878;2023-04-10T15:14:22;19.47;35.38
69208;SHT31;56321;47.662;8.878;2023-04-10T15:16:48;19.44;35.65
69208;SHT31;56321;47.662;8.878;2023-04-10T15:19:13;19.38;35.34
69208;SHT31;56321;47.662;8.878;2023-04-10T15:21:38;19.31;35.99
69208;SHT31;56321;47.662;8.878;2023-04-10T15:24:05;19.25;35.61
69208;SHT31;56321;47.662;8.878;2023-04-10T15:26:30;19.22;35.16
69208;SHT31;56321;47.662;8.878;2023-04-10T15:28:56;19.20;35.30
69208;SHT31;56321;47.662;8.878;2023-04-10T15:31:21;19.17;36.10
69208;SHT31;56321;47.662;8.878;2023-04-10T15:33:50;19.15;35.45
69208;SHT31;56321;47.662;8.878;2023-04-10T15:36:16;19.15;35.39
69208;SHT31;56321;47.662;8.878;2023-04-10T15:38:41;19.13;36.01
69208;SHT31;56321;47.662;8.878;2023-04-10T15:41:10;19.10;36.25
69208;SHT31;56321;47.662;8.878;2023-04-10T15:43:36;19.08;35.74
69208;SHT31;56321;47.662;8.878;2023-04-10T15:46:03;19.03;35.61
69208;SHT31;56321;47.662;8.878;2023-04-10T15:48:28;19.00;35.63
69208;SHT31;56321;47.662;8.878;2023-04-10T15:50:54;18.99;36.47
69208;SHT31;56321;47.662;8.878;2023-04-10T15:53:19;18.96;37.01
69208;SHT31;56321;47.662;8.878;2023-04-10T15:55:45;18.97;36.86
69208;SHT31;56321;47.662;8.878;2023-04-10T15:58:10;18.97;37.05
69208;SHT31;56321;47.662;8.878;2023-04-10T16:00:35;18.94;35.85
69208;SHT31;56321;47.662;8.878;2023-04-10T16:03:01;18.90;36.36
69208;SHT31;56321;47.662;8.878;2023-04-10T16:05:26;18.87;35.60
69208;SHT31;56321;47.662;8.878;2023-04-10T16:07:51;18.82;35.38
69208;SHT31;56321;47.662;8.878;2023-04-10T16:10:17;18.76;36.66
69208;SHT31;56321;47.662;8.878;2023-04-10T16:12:42;18.73;36.81
69208;SHT31;56321;47.662;8.878;2023-04-10T16:15:07;18.70;37.26
69208;SHT31;56321;47.662;8.878;2023-04-10T16:17:33;18.67;36.32
69208;SHT31;56321;47.662;8.878;2023-04-10T16:19:59;18.63;36.65